Time;durP1;ratioP1;P1;durP2;ratioP2;P2;SDS_P1;SDS_P2;PMS_P1;PMS_P2;Temp;Humidity;BMP_temperature;BMP_pressure;BME280_temperature;BME280_humidity;BME280_pressure;Samples;Min_cycle;Max_cycle;Signal;HPM_P1;HPM_P2
2023/06/17 00:02:23;;;;;;;;;;;21.80;62.10;;;;;;6270343;28;19960;-71
2023/06/17 00:05:24;;;;;;;;;;;21.80;62.10;;;;;;6270108;28;20343;-72
2023/06/17 00:08:25;;;;;;;;;;;21.80;62.10;;;;;;6270625;28;19913;-72
2023/06/17 00:11:28;;;;;;;;;;;21.80;62.10;;;;;;6270263;28;19916;-72
2023/06/17 00:14:29;;;;;;;;;;;21.80;62.10;;;;;;6269988;28;19912;-72
2023/06/17 00:17:32;;;;;;;;;;;21.80;62.10;;;;;;6269485;28;20011;-72
2023/06/17 00:20:36;;;;;;;;;;;21.80;62.10;;;;;;6269554;28;20604;-72
2023/06/17 00:23:36;;;;;;;;;;;21.80;62.10;;;;;;6269650;28;20352;-72
2023/06/17 00:26:37;;;;;;;;;;;21.80;62.10;;;;;;6269707;28;19924;-72
2023/06/17 00:29:37;;;;;;;;;;;21.80;62.10;;;;;;6269408;28;20434;-72
2023/06/17 00:32:38;;;;;;;;;;;21.80;62.10;;;;;;6269199;28;19917;-71
2023/06/17 00:35:38;;;;;;;;;;;21.80;62.10;;;;;;6269523;28;19919;-72
2023/06/17 00:38:39;;;;;;;;;;;21.80;62.20;;;;;;6269117;28;19920;-72
2023/06/17 00:41:39;;;;;;;;;;;21.80;62.10;;;;;;6269386;28;20006;-72
2023/06/17 00:44:40;;;;;;;;;;;21.80;62.10;;;;;;6268773;28;19984;-72
2023/06/17 00:47:41;;;;;;;;;;;21.80;62.10;;;;;;6269001;28;19908;-71
2023/06/17 00:50:45;;;;;;;;;;;21.80;62.10;;;;;;6269001;28;19962;-72
2023/06/17 00:53:45;;;;;;;;;;;21.80;62.10;;;;;;6268651;28;19927;-72
2023/06/17 00:56:46;;;;;;;;;;;21.80;62.10;;;;;;6268683;28;19912;-72
2023/06/17 00:59:47;;;;;;;;;;;21.80;62.10;;;;;;6268733;28;20261;-72
2023/06/17 01:02:47;;;;;;;;;;;21.80;62.10;;;;;;6268469;28;20034;-72
2023/06/17 01:05:49;;;;;;;;;;;21.80;62.10;;;;;;6268571;28;19912;-72
2023/06/17 01:09:06;;;;;;;;;;;21.80;62.20;;;;;;6268693;28;19909;-72
2023/06/17 01:12:08;;;;;;;;;;;21.80;62.20;;;;;;6267903;28;19913;-72
2023/06/17 01:15:10;;;;;;;;;;;21.80;62.20;;;;;;6268754;28;19913;-72
2023/06/17 01:18:11;;;;;;;;;;;21.80;62.20;;;;;;6268297;28;20284;-72
2023/06/17 01:21:12;;;;;;;;;;;21.80;62.20;;;;;;6268483;28;19908;-72
2023/06/17 01:24:13;;;;;;;;;;;21.80;62.20;;;;;;6268013;28;20287;-72
2023/06/17 01:27:15;;;;;;;;;;;21.80;62.20;;;;;;6268716;28;19913;-72
2023/06/17 01:30:16;;;;;;;;;;;21.80;62.20;;;;;;6267440;28;19912;-72
2023/06/17 01:33:17;;;;;;;;;;;21.80;62.20;;;;;;6267851;28;20406;-72
2023/06/17 01:36:22;;;;;;;;;;;21.80;62.20;;;;;;6268085;28;20276;-72
2023/06/17 01:39:25;;;;;;;;;;;21.80;62.10;;;;;;6267833;28;20014;-72
2023/06/17 01:42:31;;;;;;;;;;;21.80;62.20;;;;;;6268223;28;19916;-72
2023/06/17 01:45:32;;;;;;;;;;;21.80;62.20;;;;;;6267855;28;20387;-72
2023/06/17 01:48:32;;;;;;;;;;;21.80;62.20;;;;;;6268378;28;19909;-72
2023/06/17 01:51:33;;;;;;;;;;;21.80;62.20;;;;;;6267416;28;20256;-72
2023/06/17 01:54:34;;;;;;;;;;;21.80;62.20;;;;;;6267867;28;19982;-72
2023/06/17 01:57:34;;;;;;;;;;;21.80;62.20;;;;;;6268245;28;19956;-72
2023/06/17 02:00:35;;;;;;;;;;;21.80;62.20;;;;;;6267688;28;19991;-72
2023/06/17 02:03:35;;;;;;;;;;;21.80;62.20;;;;;;6267722;28;19927;-72
2023/06/17 02:06:37;;;;;;;;;;;21.80;62.20;;;;;;6271407;28;19913;-72
2023/06/17 02:09:37;;;;;;;;;;;21.80;62.20;;;;;;6272957;28;20371;-72
2023/06/17 02:12:38;;;;;;;;;;;21.80;62.20;;;;;;6272809;28;19912;-72
2023/06/17 02:15:42;;;;;;;;;;;21.80;62.20;;;;;;6272595;28;19919;-72
2023/06/17 02:18:42;;;;;;;;;;;21.80;62.20;;;;;;6272822;28;20291;-72
2023/06/17 02:21:43;;;;;;;;;;;21.80;62.20;;;;;;6272607;28;19916;-72
2023/06/17 02:24:43;;;;;;;;;;;21.80;62.20;;;;;;6272515;28;20007;-72
2023/06/17 02:27:44;;;;;;;;;;;21.80;62.30;;;;;;6272489;28;19999;-72
2023/06/17 02:30:44;;;;;;;;;;;21.80;62.20;;;;;;6272574;28;19909;-72
2023/06/17 02:33:45;;;;;;;;;;;21.80;62.20;;;;;;6272581;28;19913;-72
2023/06/17 02:36:46;;;;;;;;;;;21.80;62.20;;;;;;6271836;28;19924;-72
2023/06/17 02:39:46;;;;;;;;;;;21.80;62.20;;;;;;6272776;28;19909;-72
2023/06/17 02:42:47;;;;;;;;;;;21.80;62.20;;;;;;6272357;28;19909;-71
2023/06/17 02:45:47;;;;;;;;;;;21.80;63.10;;;;;;6272231;28;19936;-72
2023/06/17 02:48:48;;;;;;;;;;;21.80;62.20;;;;;;6272052;28;20260;-72
2023/06/17 02:51:48;;;;;;;;;;;21.80;62.20;;;;;;6271607;28;19984;-72
2023/06/17 02:54:50;;;;;;;;;;;21.80;62.20;;;;;;6272243;28;20422;-72
2023/06/17 02:57:51;;;;;;;;;;;21.80;62.20;;;;;;6271782;28;19924;-72
2023/06/17 03:00:54;;;;;;;;;;;21.80;62.20;;;;;;6272124;28;19948;-72
2023/06/17 03:03:54;;;;;;;;;;;21.80;62.30;;;;;;6271406;28;19951;-72
2023/06/17 03:06:56;;;;;;;;;;;21.80;62.20;;;;;;6271702;28;19966;-72
2023/06/17 03:09:57;;;;;;;;;;;21.80;62.20;;;;;;6272028;28;19923;-72
2023/06/17 03:12:57;;;;;;;;;;;21.80;62.20;;;;;;6271559;28;19912;-72
2023/06/17 03:15:59;;;;;;;;;;;21.80;62.20;;;;;;6271272;28;20003;-72
2023/06/17 03:19:00;;;;;;;;;;;21.80;62.30;;;;;;6270716;28;20004;-72
2023/06/17 03:22:01;;;;;;;;;;;21.80;62.20;;;;;;6271544;28;20485;-72
2023/06/17 03:25:02;;;;;;;;;;;21.80;62.20;;;;;;6270688;28;20073;-72
2023/06/17 03:28:04;;;;;;;;;;;21.80;62.20;;;;;;6270843;28;19913;-72
2023/06/17 03:31:05;;;;;;;;;;;21.80;62.30;;;;;;6271269;28;19908;-72
2023/06/17 03:34:05;;;;;;;;;;;21.80;62.30;;;;;;6270427;28;19932;-72
2023/06/17 03:37:06;;;;;;;;;;;21.80;62.30;;;;;;6271269;28;19962;-72
2023/06/17 03:40:07;;;;;;;;;;;21.80;62.20;;;;;;6271608;28;19954;-72
2023/06/17 03:43:07;;;;;;;;;;;21.80;62.20;;;;;;6270762;28;19909;-72
2023/06/17 03:46:08;;;;;;;;;;;21.80;62.20;;;;;;6270864;28;19913;-72
2023/06/17 03:49:08;;;;;;;;;;;21.80;62.20;;;;;;6270811;28;19913;-72
2023/06/17 03:52:09;;;;;;;;;;;21.80;63.20;;;;;;6270969;28;19915;-72
2023/06/17 03:55:10;;;;;;;;;;;21.80;62.30;;;;;;6270506;28;19914;-72
2023/06/17 03:58:14;;;;;;;;;;;21.80;62.30;;;;;;6270766;28;19942;-72
2023/06/17 04:01:15;;;;;;;;;;;21.80;62.30;;;;;;6270732;28;19959;-72
2023/06/17 04:04:15;;;;;;;;;;;21.80;62.20;;;;;;6270050;28;19948;-72
2023/06/17 04:07:16;;;;;;;;;;;21.80;62.30;;;;;;6269807;28;20007;-72
2023/06/17 04:10:17;;;;;;;;;;;21.80;62.30;;;;;;6271077;28;20389;-72
2023/06/17 04:13:17;;;;;;;;;;;21.80;62.30;;;;;;6270013;28;19909;-71
2023/06/17 04:16:18;;;;;;;;;;;21.80;62.30;;;;;;6269871;28;19940;-72
2023/06/17 04:19:18;;;;;;;;;;;21.80;62.30;;;;;;6269872;28;20011;-72
2023/06/17 04:22:19;;;;;;;;;;;21.80;62.30;;;;;;6270536;28;20212;-72
2023/06/17 04:25:20;;;;;;;;;;;21.80;62.40;;;;;;6269781;28;19931;-72
2023/06/17 04:28:22;;;;;;;;;;;21.80;62.30;;;;;;6269639;28;20147;-72
2023/06/17 04:31:25;;;;;;;;;;;21.70;62.20;;;;;;6269704;28;19913;-71
2023/06/17 04:34:26;;;;;;;;;;;21.80;62.30;;;;;;6270038;28;19917;-72
2023/06/17 04:37:26;;;;;;;;;;;21.80;62.30;;;;;;6268814;28;19924;-72
2023/06/17 04:40:27;;;;;;;;;;;21.80;62.30;;;;;;6269636;28;20431;-72
2023/06/17 04:43:28;;;;;;;;;;;21.80;62.40;;;;;;6269348;28;19920;-72
2023/06/17 04:46:29;;;;;;;;;;;21.70;62.20;;;;;;6269407;28;19978;-72
2023/06/17 04:49:29;;;;;;;;;;;21.80;62.30;;;;;;6268965;28;19916;-71
2023/06/17 04:52:31;;;;;;;;;;;21.80;62.30;;;;;;6269326;28;19921;-72
2023/06/17 04:55:35;;;;;;;;;;;21.70;62.20;;;;;;6269608;28;19954;-72
2023/06/17 04:58:35;;;;;;;;;;;21.70;62.20;;;;;;6269099;28;19917;-72
2023/06/17 05:01:36;;;;;;;;;;;21.80;62.30;;;;;;6261563;28;20284;-72
2023/06/17 05:04:36;;;;;;;;;;;21.70;62.20;;;;;;6265495;28;19920;-72
2023/06/17 05:07:37;;;;;;;;;;;21.80;62.30;;;;;;6268756;28;19908;-72
2023/06/17 05:10:37;;;;;;;;;;;21.80;62.40;;;;;;6268835;28;19935;-71
2023/06/17 05:13:38;;;;;;;;;;;21.80;62.40;;;;;;6268328;28;20147;-72
2023/06/17 05:16:38;;;;;;;;;;;21.70;62.20;;;;;;6268845;28;19913;-72
2023/06/17 05:19:39;;;;;;;;;;;21.70;62.20;;;;;;6268172;28;20015;-72
2023/06/17 05:22:39;;;;;;;;;;;21.80;62.40;;;;;;6267458;28;19912;-72
2023/06/17 05:25:40;;;;;;;;;;;21.70;62.20;;;;;;6268346;28;20151;-72
2023/06/17 05:28:41;;;;;;;;;;;21.80;62.30;;;;;;6268770;28;19924;-72
2023/06/17 05:31:41;;;;;;;;;;;21.80;62.40;;;;;;6268504;28;19913;-72
2023/06/17 05:34:41;;;;;;;;;;;21.70;62.20;;;;;;6268176;28;20264;-72
2023/06/17 05:37:42;;;;;;;;;;;21.80;62.40;;;;;;6268262;28;19917;-72
2023/06/17 05:40:42;;;;;;;;;;;21.80;62.40;;;;;;6268495;28;19960;-72
2023/06/17 05:43:43;;;;;;;;;;;21.80;62.40;;;;;;6268121;28;19959;-72
2023/06/17 05:46:43;;;;;;;;;;;21.80;62.30;;;;;;6268191;28;20002;-72
2023/06/17 05:49:44;;;;;;;;;;;21.80;62.40;;;;;;6267978;28;19955;-72
2023/06/17 05:52:45;;;;;;;;;;;21.80;62.40;;;;;;6268156;28;19909;-72
2023/06/17 05:55:46;;;;;;;;;;;21.80;62.40;;;;;;6268181;28;19916;-72
2023/06/17 05:58:46;;;;;;;;;;;21.70;62.30;;;;;;6267827;28;19917;-72
2023/06/17 06:01:47;;;;;;;;;;;21.80;62.40;;;;;;6268381;28;19995;-72
2023/06/17 06:04:47;;;;;;;;;;;21.70;62.30;;;;;;6267438;28;19928;-72
2023/06/17 06:07:48;;;;;;;;;;;21.80;62.40;;;;;;6267957;28;19909;-71
2023/06/17 06:10:48;;;;;;;;;;;21.70;62.30;;;;;;6268114;28;19912;-72
2023/06/17 06:13:49;;;;;;;;;;;21.80;62.40;;;;;;6266704;28;19909;-72
2023/06/17 06:16:49;;;;;;;;;;;21.70;62.20;;;;;;6268439;28;19913;-72
2023/06/17 06:19:50;;;;;;;;;;;21.80;62.40;;;;;;6267473;28;19912;-72
2023/06/17 06:22:50;;;;;;;;;;;21.70;62.20;;;;;;6268260;28;19948;-72
2023/06/17 06:25:51;;;;;;;;;;;21.70;62.20;;;;;;6267850;28;20253;-72
2023/06/17 06:28:52;;;;;;;;;;;21.70;62.20;;;;;;6268117;28;19984;-72
2023/06/17 06:31:52;;;;;;;;;;;21.80;62.40;;;;;;6268048;28;19944;-71
2023/06/17 06:34:52;;;;;;;;;;;21.70;62.20;;;;;;6267477;28;19913;-71
2023/06/17 06:37:53;;;;;;;;;;;21.70;62.20;;;;;;6267546;28;19958;-72
2023/06/17 06:40:53;;;;;;;;;;;21.70;62.30;;;;;;6267125;28;19913;-71
2023/06/17 06:43:54;;;;;;;;;;;21.70;62.20;;;;;;6267722;28;19932;-72
2023/06/17 06:46:55;;;;;;;;;;;21.80;62.40;;;;;;6267491;28;19909;-72
2023/06/17 06:49:56;;;;;;;;;;;21.70;62.20;;;;;;6267882;28;20004;-72
2023/06/17 06:52:56;;;;;;;;;;;21.80;62.40;;;;;;6271130;28;20417;-72
2023/06/17 06:55:57;;;;;;;;;;;21.80;62.40;;;;;;6271771;28;19912;-73
2023/06/17 06:58:59;;;;;;;;;;;21.80;62.40;;;;;;6271581;28;19917;-72
2023/06/17 07:02:00;;;;;;;;;;;21.70;62.30;;;;;;6271397;28;19963;-72
2023/06/17 07:05:01;;;;;;;;;;;21.80;62.40;;;;;;6270540;28;19925;-72
2023/06/17 07:08:01;;;;;;;;;;;21.70;62.30;;;;;;6271746;28;19916;-72
2023/06/17 07:11:04;;;;;;;;;;;21.70;62.20;;;;;;6269987;28;20196;-72
2023/06/17 07:14:05;;;;;;;;;;;21.80;62.40;;;;;;6271350;28;20256;-71
2023/06/17 07:17:05;;;;;;;;;;;21.70;62.20;;;;;;6270508;28;20437;-72
2023/06/17 07:20:06;;;;;;;;;;;21.70;62.20;;;;;;6271150;28;20402;-72
2023/06/17 07:23:07;;;;;;;;;;;21.70;62.30;;;;;;6271513;28;20371;-71
2023/06/17 07:26:07;;;;;;;;;;;21.70;62.30;;;;;;6271419;28;19915;-72
2023/06/17 07:29:08;;;;;;;;;;;21.70;62.30;;;;;;6270758;28;19948;-71
2023/06/17 07:32:08;;;;;;;;;;;21.70;62.30;;;;;;6271141;28;20303;-72
2023/06/17 07:35:09;;;;;;;;;;;21.70;62.30;;;;;;6270861;28;19912;-72
2023/06/17 07:38:09;;;;;;;;;;;21.70;62.30;;;;;;6271332;28;19947;-72
2023/06/17 07:41:10;;;;;;;;;;;21.70;62.30;;;;;;6270714;28;19913;-72
2023/06/17 07:44:10;;;;;;;;;;;21.70;62.30;;;;;;6270491;28;19908;-72
2023/06/17 07:47:10;;;;;;;;;;;21.70;62.30;;;;;;6270564;28;19909;-72
2023/06/17 07:50:11;;;;;;;;;;;21.70;62.20;;;;;;6270835;28;20352;-72
2023/06/17 07:53:12;;;;;;;;;;;21.70;62.20;;;;;;6270947;28;19908;-72
2023/06/17 07:56:13;;;;;;;;;;;21.70;62.20;;;;;;6270455;28;20382;-72
2023/06/17 07:59:13;;;;;;;;;;;21.70;62.30;;;;;;6270564;28;20371;-72
2023/06/17 08:02:14;;;;;;;;;;;21.70;62.20;;;;;;6270201;28;19916;-72
2023/06/17 08:05:15;;;;;;;;;;;21.70;62.20;;;;;;6269713;28;20008;-72
2023/06/17 08:08:15;;;;;;;;;;;21.70;62.20;;;;;;6270418;28;19919;-72
2023/06/17 08:11:16;;;;;;;;;;;21.70;62.30;;;;;;6270043;28;19996;-72
2023/06/17 08:14:16;;;;;;;;;;;21.70;62.20;;;;;;6269999;28;20046;-72
2023/06/17 08:17:17;;;;;;;;;;;21.70;62.20;;;;;;6269733;28;20579;-71
2023/06/17 08:20:17;;;;;;;;;;;21.70;62.20;;;;;;6269829;28;19913;-72
2023/06/17 08:23:18;;;;;;;;;;;21.70;62.30;;;;;;6269860;28;20539;-72
2023/06/17 08:26:18;;;;;;;;;;;21.70;62.20;;;;;;6268395;28;19913;-72
2023/06/17 08:29:20;;;;;;;;;;;21.70;62.20;;;;;;6269932;28;19916;-72
2023/06/17 08:32:20;;;;;;;;;;;21.70;62.20;;;;;;6269340;28;19963;-71
2023/06/17 08:35:21;;;;;;;;;;;21.70;62.30;;;;;;6269658;28;19909;-72
2023/06/17 08:38:21;;;;;;;;;;;21.70;62.20;;;;;;6269662;28;19913;-72
2023/06/17 08:41:22;;;;;;;;;;;21.70;62.30;;;;;;6269199;28;19917;-72
2023/06/17 08:44:24;;;;;;;;;;;21.70;62.30;;;;;;6269243;28;19963;-72
2023/06/17 08:47:25;;;;;;;;;;;21.70;62.30;;;;;;6269244;28;20291;-72
2023/06/17 08:50:26;;;;;;;;;;;21.70;62.30;;;;;;6268982;28;19909;-72
2023/06/17 08:53:27;;;;;;;;;;;21.70;62.30;;;;;;6269552;28;19939;-72
2023/06/17 08:56:28;;;;;;;;;;;21.70;62.30;;;;;;6268978;28;19912;-72
2023/06/17 08:59:29;;;;;;;;;;;21.70;62.30;;;;;;6269521;28;20027;-72
2023/06/17 09:02:30;;;;;;;;;;;21.70;62.20;;;;;;6268362;28;19920;-72
2023/06/17 09:05:31;;;;;;;;;;;21.70;62.30;;;;;;6268907;28;19949;-72
2023/06/17 09:08:32;;;;;;;;;;;21.70;62.20;;;;;;6262295;28;19912;-72
2023/06/17 09:11:32;;;;;;;;;;;21.70;62.20;;;;;;6259599;28;19935;-71
2023/06/17 09:14:33;;;;;;;;;;;21.70;62.30;;;;;;6264481;28;19909;-72
2023/06/17 09:17:36;;;;;;;;;;;21.70;62.20;;;;;;6267035;28;19912;-72
2023/06/17 09:20:36;;;;;;;;;;;21.70;62.30;;;;;;6266879;28;19912;-72
2023/06/17 09:23:37;;;;;;;;;;;21.70;62.20;;;;;;6281909;28;20264;-73
2023/06/17 09:26:44;;;;;;;;;;;21.70;62.20;;;;;;6275394;28;19913;-72
2023/06/17 09:29:45;;;;;;;;;;;21.70;62.20;;;;;;6267281;28;19921;-72
2023/06/17 09:32:46;;;;;;;;;;;21.70;62.30;;;;;;6266489;28;19909;-72
2023/06/17 09:35:47;;;;;;;;;;;21.70;62.20;;;;;;6266838;28;19916;-72
2023/06/17 09:38:50;;;;;;;;;;;21.70;62.30;;;;;;6266907;28;19913;-72
2023/06/17 09:41:54;;;;;;;;;;;21.70;62.20;;;;;;6266147;28;20363;-72
2023/06/17 09:44:55;;;;;;;;;;;21.70;62.20;;;;;;6266917;28;19920;-72
2023/06/17 09:47:55;;;;;;;;;;;21.70;62.20;;;;;;6266496;28;19938;-72
2023/06/17 09:50:56;;;;;;;;;;;21.70;62.20;;;;;;6265972;28;19913;-72
2023/06/17 09:53:57;;;;;;;;;;;21.70;62.30;;;;;;6266690;28;19970;-72
2023/06/17 09:56:59;;;;;;;;;;;21.70;62.40;;;;;;6265967;28;19909;-72
2023/06/17 10:00:10;;;;;;;;;;;21.70;62.30;;;;;;6266109;28;20333;-72
2023/06/17 10:03:10;;;;;;;;;;;21.70;62.30;;;;;;6265050;28;19920;-71
2023/06/17 10:06:11;;;;;;;;;;;21.70;62.20;;;;;;6247157;28;20391;-72
2023/06/17 10:09:13;;;;;;;;;;;21.70;62.30;;;;;;6266346;28;19939;-72
2023/06/17 10:12:14;;;;;;;;;;;21.70;62.30;;;;;;6265812;28;20394;-73
2023/06/17 10:15:17;;;;;;;;;;;21.70;62.30;;;;;;6268232;28;19909;-73
2023/06/17 10:18:18;;;;;;;;;;;21.80;62.40;;;;;;6267607;28;19925;-73
2023/06/17 10:21:20;;;;;;;;;;;21.80;62.50;;;;;;6264145;28;20434;-72
2023/06/17 10:24:22;;;;;;;;;;;21.80;62.50;;;;;;6266407;28;19916;-72
2023/06/17 10:27:22;;;;;;;;;;;21.80;62.50;;;;;;6282489;28;19909;-72
2023/06/17 10:30:29;;;;;;;;;;;21.70;62.40;;;;;;6269508;28;19909;-72
2023/06/17 10:33:29;;;;;;;;;;;21.70;62.40;;;;;;6266765;28;19944;-72
2023/06/17 10:36:31;;;;;;;;;;;21.70;62.40;;;;;;6268990;28;19947;-72
2023/06/17 10:39:32;;;;;;;;;;;21.70;62.40;;;;;;6268856;28;20026;-72
2023/06/17 10:42:32;;;;;;;;;;;21.70;62.40;;;;;;6268808;28;19934;-71
2023/06/17 10:45:46;;;;;;;;;;;21.70;62.30;;;;;;6269456;28;20362;-72
2023/06/17 10:48:46;;;;;;;;;;;21.80;62.40;;;;;;6268866;28;20310;-72
2023/06/17 10:51:48;;;;;;;;;;;21.70;62.20;;;;;;6269936;28;19909;-72
2023/06/17 10:54:55;;;;;;;;;;;21.70;62.20;;;;;;6272477;28;20268;-71
2023/06/17 10:57:57;;;;;;;;;;;21.70;62.30;;;;;;6271946;28;20020;-72
2023/06/17 11:00:58;;;;;;;;;;;21.70;62.30;;;;;;6271250;28;20383;-72
2023/06/17 11:04:05;;;;;;;;;;;21.70;62.30;;;;;;6268810;28;20387;-72
2023/06/17 11:07:06;;;;;;;;;;;21.70;62.40;;;;;;6248601;28;20372;-72
2023/06/17 11:10:07;;;;;;;;;;;21.70;62.40;;;;;;6272196;28;19930;-72
2023/06/17 11:13:07;;;;;;;;;;;21.70;62.30;;;;;;6271594;28;20049;-72
2023/06/17 11:16:08;;;;;;;;;;;21.70;62.30;;;;;;6269391;28;19958;-72
2023/06/17 11:19:09;;;;;;;;;;;21.70;62.40;;;;;;6267494;28;20668;-72
2023/06/17 11:22:09;;;;;;;;;;;21.70;62.40;;;;;;6269130;28;19909;-72
2023/06/17 11:25:10;;;;;;;;;;;21.70;62.30;;;;;;6269366;28;20503;-72
2023/06/17 11:28:11;;;;;;;;;;;21.70;62.30;;;;;;6268228;28;19919;-72
2023/06/17 11:31:12;;;;;;;;;;;21.70;62.30;;;;;;6269032;28;19950;-73
2023/06/17 11:34:12;;;;;;;;;;;21.70;62.40;;;;;;6268857;28;20561;-72
2023/06/17 11:37:16;;;;;;;;;;;21.70;62.40;;;;;;6268774;28;19971;-71
2023/06/17 11:40:17;;;;;;;;;;;21.70;62.40;;;;;;6268141;28;19909;-72
2023/06/17 11:43:20;;;;;;;;;;;21.70;62.40;;;;;;6268871;28;20291;-71
2023/06/17 11:46:21;;;;;;;;;;;21.70;62.40;;;;;;6269474;28;19958;-71
2023/06/17 11:49:26;;;;;;;;;;;21.70;62.40;;;;;;6270104;28;19963;-71
2023/06/17 11:52:27;;;;;;;;;;;21.70;62.40;;;;;;6270831;28;20027;-72
2023/06/17 11:55:34;;;;;;;;;;;21.70;62.40;;;;;;6269955;28;19908;-71
2023/06/17 11:58:39;;;;;;;;;;;21.70;62.40;;;;;;6269288;28;19921;-72
2023/06/17 12:01:40;;;;;;;;;;;21.70;62.40;;;;;;6270197;28;19925;-72
2023/06/17 12:04:46;;;;;;;;;;;21.70;62.40;;;;;;6269113;28;20445;-72
2023/06/17 12:07:47;;;;;;;;;;;21.70;62.50;;;;;;6270847;28;19996;-72
2023/06/17 12:10:47;;;;;;;;;;;21.70;62.40;;;;;;6270048;28;20431;-71
2023/06/17 12:13:48;;;;;;;;;;;21.70;62.40;;;;;;6269624;28;20009;-72
2023/06/17 12:16:51;;;;;;;;;;;21.70;62.40;;;;;;6270533;28;19913;-72
2023/06/17 12:19:57;;;;;;;;;;;21.70;62.40;;;;;;6269568;28;19916;-71
2023/06/17 12:22:58;;;;;;;;;;;21.70;62.40;;;;;;6270249;28;20394;-71
2023/06/17 12:25:58;;;;;;;;;;;21.70;62.40;;;;;;6277556;28;19908;-71
2023/06/17 12:28:59;;;;;;;;;;;21.70;62.40;;;;;;6292634;28;20378;-72
2023/06/17 12:31:59;;;;;;;;;;;21.70;62.40;;;;;;6269809;28;20300;-71
2023/06/17 12:35:00;;;;;;;;;;;21.70;62.40;;;;;;6269666;28;19909;-72
2023/06/17 12:38:01;;;;;;;;;;;21.70;62.40;;;;;;6270126;28;19924;-72
2023/06/17 12:41:02;;;;;;;;;;;21.70;62.40;;;;;;6268830;28;19944;-72
2023/06/17 12:44:02;;;;;;;;;;;21.70;62.50;;;;;;6269296;28;19915;-71
2023/06/17 12:47:03;;;;;;;;;;;21.70;62.40;;;;;;6269625;28;20264;-72
2023/06/17 12:50:04;;;;;;;;;;;21.70;62.40;;;;;;6268285;28;19915;-71
2023/06/17 12:53:05;;;;;;;;;;;21.70;62.40;;;;;;6269079;28;19916;-72
2023/06/17 12:56:06;;;;;;;;;;;21.70;62.40;;;;;;6269148;28;19948;-71
2023/06/17 12:59:07;;;;;;;;;;;21.70;62.40;;;;;;6269346;28;19924;-72
2023/06/17 13:02:07;;;;;;;;;;;21.70;62.50;;;;;;6268926;28;19935;-72
2023/06/17 13:05:09;;;;;;;;;;;21.70;62.50;;;;;;6267829;28;19924;-71
2023/06/17 13:08:09;;;;;;;;;;;21.70;62.50;;;;;;6249589;28;20000;-72
2023/06/17 13:11:11;;;;;;;;;;;21.70;62.50;;;;;;6257647;28;19912;-72
2023/06/17 13:14:12;;;;;;;;;;;21.70;62.40;;;;;;6268759;28;19931;-72
2023/06/17 13:17:12;;;;;;;;;;;21.70;62.50;;;;;;6268717;28;19921;-72
2023/06/17 13:20:13;;;;;;;;;;;21.70;62.40;;;;;;6268123;28;19909;-72
2023/06/17 13:23:13;;;;;;;;;;;21.70;62.40;;;;;;6268656;28;19909;-72
2023/06/17 13:26:14;;;;;;;;;;;21.70;62.50;;;;;;6268250;28;19909;-72
2023/06/17 13:29:14;;;;;;;;;;;21.70;62.40;;;;;;6268575;28;19920;-72
2023/06/17 13:32:15;;;;;;;;;;;21.70;62.40;;;;;;6267968;28;19962;-72
2023/06/17 13:35:16;;;;;;;;;;;21.70;62.50;;;;;;6266763;28;20556;-72
2023/06/17 13:38:18;;;;;;;;;;;21.70;62.40;;;;;;6269860;28;19940;-72
2023/06/17 13:41:18;;;;;;;;;;;21.70;62.50;;;;;;6267419;28;20006;-71
2023/06/17 13:44:19;;;;;;;;;;;21.70;62.50;;;;;;6268360;28;19912;-72
2023/06/17 13:47:19;;;;;;;;;;;21.70;62.50;;;;;;6268223;28;19963;-72
2023/06/17 13:50:20;;;;;;;;;;;21.70;62.50;;;;;;6267587;28;20419;-72
2023/06/17 13:53:20;;;;;;;;;;;21.70;62.50;;;;;;6268515;28;19936;-72
2023/06/17 13:56:22;;;;;;;;;;;21.70;62.50;;;;;;6268108;28;19909;-71
2023/06/17 13:59:24;;;;;;;;;;;21.70;62.50;;;;;;6270827;28;19917;-72
2023/06/17 14:02:24;;;;;;;;;;;21.70;62.50;;;;;;6266267;28;20627;-72
2023/06/17 14:05:25;;;;;;;;;;;21.70;62.50;;;;;;6253389;28;19925;-72
2023/06/17 14:08:26;;;;;;;;;;;21.70;62.50;;;;;;6273751;28;19917;-73
2023/06/17 14:11:26;;;;;;;;;;;21.70;62.50;;;;;;6272636;28;20002;-72
2023/06/17 14:14:27;;;;;;;;;;;21.70;62.50;;;;;;6273141;28;19915;-72
2023/06/17 14:17:28;;;;;;;;;;;21.70;62.50;;;;;;6272921;28;20455;-72
2023/06/17 14:20:28;;;;;;;;;;;21.70;62.50;;;;;;6257125;28;19913;-72
2023/06/17 14:23:29;;;;;;;;;;;21.70;62.50;;;;;;6269769;28;20350;-71
2023/06/17 14:26:30;;;;;;;;;;;21.70;62.50;;;;;;6287573;28;19913;-72
2023/06/17 14:29:30;;;;;;;;;;;21.70;62.50;;;;;;6273001;28;19963;-72
2023/06/17 14:32:30;;;;;;;;;;;21.70;62.50;;;;;;6272362;28;19916;-72
2023/06/17 14:35:31;;;;;;;;;;;21.70;62.50;;;;;;6272706;28;19909;-72
2023/06/17 14:38:32;;;;;;;;;;;21.70;62.50;;;;;;6268526;28;20597;-71
2023/06/17 14:41:32;;;;;;;;;;;21.70;62.50;;;;;;6266797;28;20350;-72
2023/06/17 14:44:33;;;;;;;;;;;21.70;62.50;;;;;;6272716;28;19908;-71
2023/06/17 14:47:34;;;;;;;;;;;21.70;62.50;;;;;;6268131;28;19917;-71
2023/06/17 14:50:34;;;;;;;;;;;21.70;62.50;;;;;;6273047;28;19909;-72
2023/06/17 14:53:36;;;;;;;;;;;21.70;62.50;;;;;;6272092;28;19909;-72
2023/06/17 14:56:37;;;;;;;;;;;21.70;62.50;;;;;;6272038;28;19940;-72
2023/06/17 14:59:38;;;;;;;;;;;21.70;62.50;;;;;;6272040;28;19959;-71
2023/06/17 15:02:46;;;;;;;;;;;21.70;62.50;;;;;;6271555;28;20375;-72
2023/06/17 15:05:46;;;;;;;;;;;21.70;62.50;;;;;;6249507;28;19932;-72
2023/06/17 15:08:47;;;;;;;;;;;21.70;62.50;;;;;;6264398;28;19951;-72
2023/06/17 15:11:47;;;;;;;;;;;21.70;62.50;;;;;;6269559;28;19916;-71
2023/06/17 15:14:50;;;;;;;;;;;21.70;62.50;;;;;;6271508;28;19913;-72
2023/06/17 15:17:51;;;;;;;;;;;21.70;62.50;;;;;;6271298;28;20314;-72
2023/06/17 15:20:51;;;;;;;;;;;21.70;62.50;;;;;;6271397;28;19916;-72
2023/06/17 15:23:52;;;;;;;;;;;21.70;62.50;;;;;;6270430;28;19915;-72
2023/06/17 15:26:52;;;;;;;;;;;21.70;62.50;;;;;;6271729;28;19909;-72
2023/06/17 15:29:53;;;;;;;;;;;21.70;62.50;;;;;;6270872;28;19963;-72
2023/06/17 15:32:53;;;;;;;;;;;21.70;62.50;;;;;;6271112;28;19908;-72
2023/06/17 15:35:54;;;;;;;;;;;21.70;62.50;;;;;;6271729;28;20294;-72
2023/06/17 15:38:57;;;;;;;;;;;21.70;62.50;;;;;;6270898;28;19917;-72
2023/06/17 15:41:57;;;;;;;;;;;21.70;62.50;;;;;;6271126;28;19919;-72
2023/06/17 15:44:58;;;;;;;;;;;21.70;62.50;;;;;;6270717;28;20339;-71
2023/06/17 15:47:58;;;;;;;;;;;21.70;62.50;;;;;;6279079;28;19913;-72
2023/06/17 15:50:59;;;;;;;;;;;21.70;62.50;;;;;;6270285;28;19909;-72
2023/06/17 15:54:00;;;;;;;;;;;21.70;62.50;;;;;;6266849;28;19917;-73
2023/06/17 15:57:01;;;;;;;;;;;21.70;62.50;;;;;;6269495;28;19943;-72
2023/06/17 16:00:03;;;;;;;;;;;21.70;62.50;;;;;;6268399;28;19959;-72
2023/06/17 16:03:04;;;;;;;;;;;21.70;62.50;;;;;;6263085;28;19920;-71
2023/06/17 16:06:04;;;;;;;;;;;21.70;62.50;;;;;;6292611;28;19916;-72
2023/06/17 16:09:05;;;;;;;;;;;21.70;62.50;;;;;;6282564;28;19909;-72
2023/06/17 16:12:06;;;;;;;;;;;21.70;62.50;;;;;;6267277;28;20360;-72
2023/06/17 16:15:06;;;;;;;;;;;21.70;62.50;;;;;;6268030;28;19995;-72
2023/06/17 16:18:07;;;;;;;;;;;21.70;62.50;;;;;;6267868;28;20253;-72
2023/06/17 16:21:07;;;;;;;;;;;21.70;62.50;;;;;;6268608;28;19913;-72
2023/06/17 16:24:08;;;;;;;;;;;21.70;62.50;;;;;;6280703;28;19944;-72
2023/06/17 16:27:10;;;;;;;;;;;21.70;62.50;;;;;;6269237;28;19913;-72
2023/06/17 16:30:11;;;;;;;;;;;21.70;62.50;;;;;;6267018;28;20381;-72
2023/06/17 16:33:11;;;;;;;;;;;21.60;62.50;;;;;;6268610;28;19931;-72
2023/06/17 16:36:12;;;;;;;;;;;21.70;62.50;;;;;;6267635;28;19916;-72
2023/06/17 16:39:12;;;;;;;;;;;21.70;62.50;;;;;;6267710;28;19959;-72
2023/06/17 16:42:13;;;;;;;;;;;21.70;62.50;;;;;;6267544;28;20395;-71
2023/06/17 16:45:14;;;;;;;;;;;21.70;62.50;;;;;;6267180;28;20306;-72
2023/06/17 16:48:14;;;;;;;;;;;21.70;62.50;;;;;;6268172;28;19944;-72
2023/06/17 16:51:15;;;;;;;;;;;21.70;62.50;;;;;;6266644;28;19913;-72
2023/06/17 16:54:16;;;;;;;;;;;21.70;62.60;;;;;;6267602;28;19923;-71
2023/06/17 16:57:16;;;;;;;;;;;21.70;62.50;;;;;;6268079;28;19916;-72
2023/06/17 17:00:18;;;;;;;;;;;21.60;62.50;;;;;;6266943;28;20000;-72
2023/06/17 17:03:18;;;;;;;;;;;21.70;62.50;;;;;;6258705;28;19928;-72
2023/06/17 17:06:19;;;;;;;;;;;21.70;62.60;;;;;;6258849;28;19959;-71
2023/06/17 17:09:20;;;;;;;;;;;21.70;62.50;;;;;;6267224;28;19917;-72
2023/06/17 17:12:20;;;;;;;;;;;21.70;62.50;;;;;;6266499;28;19913;-71
2023/06/17 17:15:21;;;;;;;;;;;21.70;62.60;;;;;;6269646;28;19909;-72
2023/06/17 17:18:27;;;;;;;;;;;21.70;62.60;;;;;;6271623;28;19919;-72
2023/06/17 17:21:27;;;;;;;;;;;21.60;62.50;;;;;;6265957;28;19952;-72
2023/06/17 17:24:28;;;;;;;;;;;21.70;62.60;;;;;;6266962;28;20286;-71
2023/06/17 17:27:29;;;;;;;;;;;21.70;62.80;;;;;;6266614;28;19908;-72
2023/06/17 17:30:30;;;;;;;;;;;21.70;62.70;;;;;;6266706;28;19919;-72
2023/06/17 17:33:32;;;;;;;;;;;21.60;62.60;;;;;;6267947;28;19909;-72